This is the latest recevied weather packets stored in our database for station/object DPX206-15. If no packets are shown the sender has not sent any weather packets the latest 10 day(s).
| Time | Temp. | Humidity | Pressure | Rain* | Wind** | Luminosity | Snow |
|---|---|---|---|---|---|---|---|
| 1777973647 | 15.56° C | 88% | 1011.2 hPa | 0 mm | - | 203 W/m² | - |
| 1777972896 | 15.56° C | 89% | 1011.3 hPa | 0 mm | - | 227 W/m² | - |
| 1777972146 | 15° C | 89% | 1011.2 hPa | 0 mm | - | 167 W/m² | - |
| 1777971061 | 15° C | 90% | 1011.2 hPa | 0 mm | - | 189 W/m² | - |
| 1777970311 | 14.44° C | 91% | 1011.3 hPa | 0 mm | - | 202 W/m² | - |
| 1777969561 | 14.44° C | 91% | 1011.5 hPa | 0 mm | - | 142 W/m² | - |
| 1777968811 | 14.44° C | 91% | 1011.3 hPa | 0 mm | - | 143 W/m² | - |
| 1777603123 | 4.44° C | 79% | 1030.7 hPa | 0 mm | - | 0 W/m² | - |
| 1777602373 | 4.44° C | 79% | 1030.9 hPa | 0 mm | - | 0 W/m² | - |
| 1777601623 | 4.44° C | 78% | 1030.7 hPa | 0 mm | - | 0 W/m² | - |
| 1777600873 | 4.44° C | 78% | 1030.8 hPa | 0 mm | - | 0 W/m² | - |
| 1777600123 | 4.44° C | 78% | 1030.8 hPa | 0 mm | - | 0 W/m² | - |
| 1777599372 | 4.44° C | 77% | 1030.8 hPa | 0 mm | - | 0 W/m² | - |
| 1777598622 | 4.44° C | 77% | 1030.9 hPa | 0 mm | - | 0 W/m² | - |
| 1777597872 | 4.44° C | 76% | 1030.9 hPa | 0 mm | - | 0 W/m² | - |
| 1777597122 | 5° C | 76% | 1030.8 hPa | 0 mm | - | 0 W/m² | - |
| 1777595621 | 5° C | 76% | 1030.9 hPa | 0 mm | - | 0 W/m² | - |
| 1777594871 | 5° C | 75% | 1030.9 hPa | 0 mm | - | 0 W/m² | - |
| 1777594121 | 5.56° C | 75% | 1030.6 hPa | 0 mm | - | 0 W/m² | - |
| 1777593370 | 5° C | 75% | 1030.8 hPa | 0 mm | - | 0 W/m² | - |
| 1777592620 | 5° C | 74% | 1030.9 hPa | 0 mm | - | 0 W/m² | - |
| 1777591870 | 5.56° C | 73% | 1031 hPa | 0 mm | - | 0 W/m² | - |
| 1777591120 | 5.56° C | 74% | 1030.7 hPa | 0 mm | - | 0 W/m² | - |
| 1777590369 | 5.56° C | 72% | 1031 hPa | 0 mm | - | 0 W/m² | - |
| 1777589619 | 5.56° C | 72% | 1031.1 hPa | 0 mm | - | 0 W/m² | - |
* Rain latest hour (hover to see other rain measurements)
** Current wind speed in m/s (hover to see current wind gust speed)